createdAt,value
2019-06-07T00:00:38.252Z,69.04
2019-06-07T00:02:51.769Z,68.96
2019-06-07T00:05:19.985Z,69.16
2019-06-07T00:07:46.643Z,69.40
2019-06-07T00:10:32.630Z,69.49
2019-06-07T00:12:41.702Z,69.44
2019-06-07T00:15:11.641Z,69.58
2019-06-07T00:17:36.572Z,69.91
2019-06-07T00:20:03.990Z,69.96
2019-06-07T00:22:33.435Z,69.82
2019-06-07T00:24:58.830Z,70.00
2019-06-07T00:27:26.227Z,70.26
2019-06-07T00:29:53.641Z,70.39
2019-06-07T00:32:22.053Z,70.34
2019-06-07T00:34:48.499Z,70.45
2019-06-07T00:37:16.407Z,70.65
2019-06-07T00:39:43.384Z,70.67
2019-06-07T00:42:11.474Z,70.77
2019-06-07T00:44:38.272Z,70.93
2019-06-07T00:47:05.667Z,71.11
2019-06-07T00:49:40.957Z,71.19
2019-06-07T00:52:00.503Z,71.24
2019-06-07T00:54:28.090Z,71.12
2019-06-07T00:56:55.496Z,70.82
2019-06-07T00:59:28.829Z,71.08
2019-06-07T01:01:50.428Z,71.41
2019-06-07T01:04:19.394Z,71.47
2019-06-07T01:06:45.245Z,71.64
2019-06-07T01:09:12.887Z,71.91
2019-06-07T01:11:40.151Z,72.04
2019-06-07T01:14:07.548Z,72.14
2019-06-07T01:16:55.797Z,72.06
2019-06-07T01:19:02.472Z,72.04
2019-06-07T01:21:30.119Z,71.76
2019-06-07T01:24:11.452Z,71.82
2019-06-07T01:26:26.948Z,71.66
2019-06-07T01:28:52.123Z,71.82
2019-06-07T01:31:21.129Z,71.99
2019-06-07T01:33:50.957Z,71.94
2019-06-07T01:36:14.506Z,72.12
2019-06-07T01:38:41.982Z,72.09
2019-06-07T01:41:09.439Z,71.81
2019-06-07T01:43:36.853Z,71.71
2019-06-07T01:46:04.383Z,71.32
2019-06-07T01:48:48.461Z,71.24
2019-06-07T01:50:59.218Z,71.38
2019-06-07T01:53:29.127Z,71.59
2019-06-07T01:55:54.066Z,71.50
2019-06-07T01:58:22.231Z,71.40
2019-06-07T02:00:48.945Z,71.35
2019-06-07T02:03:18.368Z,71.35
2019-06-07T02:05:44.364Z,71.18
2019-06-07T02:08:11.806Z,70.84
2019-06-07T02:10:39.223Z,70.70
2019-06-07T02:13:06.663Z,70.73
2019-06-07T02:15:36.770Z,70.93
2019-06-07T02:18:01.596Z,70.87
2019-06-07T02:20:32.112Z,70.87
2019-06-07T02:22:56.684Z,71.15
2019-06-07T02:25:48.450Z,71.01
2019-06-07T02:27:51.639Z,70.75
2019-06-07T02:32:46.665Z,71.30
2019-06-07T02:35:14.176Z,71.62
2019-06-07T02:37:41.682Z,71.97
2019-06-07T02:40:09.150Z,71.86
2019-06-07T02:42:42.251Z,71.65
2019-06-07T02:45:04.939Z,71.63
2019-06-07T02:47:36.041Z,71.66
2019-06-07T02:49:59.872Z,71.30
2019-06-07T02:52:31.616Z,71.42
2019-06-07T02:54:54.923Z,71.63
2019-06-07T02:57:24.997Z,71.89
2019-06-07T03:00:06.463Z,71.88
2019-06-07T03:02:17.382Z,71.72
2019-06-07T03:04:45.142Z,71.50
2019-06-07T03:07:12.434Z,71.30
2019-06-07T03:09:40.165Z,71.04
2019-06-07T03:12:07.432Z,70.69
2019-06-07T03:14:35.281Z,70.39
2019-06-07T03:19:58.471Z,69.35
2019-06-07T03:22:26.724Z,69.11
2019-06-07T03:24:53.398Z,69.32
2019-06-07T03:27:34.903Z,69.48
2019-06-07T03:29:48.386Z,69.45
2019-06-07T03:32:15.861Z,69.47
2019-06-07T03:34:44.015Z,69.43
2019-06-07T03:37:10.847Z,69.75
2019-06-07T03:39:40.912Z,69.94
2019-06-07T03:42:08.387Z,70.07
2019-06-07T03:44:36.408Z,70.19
2019-06-07T03:47:00.844Z,70.32
2019-06-07T03:49:30.737Z,70.41
2019-06-07T03:51:55.779Z,70.25
2019-06-07T03:54:23.236Z,70.02
2019-06-07T03:56:50.771Z,70.11
2019-06-07T03:59:18.242Z,70.22
2019-06-07T04:01:45.798Z,70.13
2019-06-07T04:04:13.247Z,69.96
2019-06-07T04:06:42.398Z,70.00
2019-06-07T04:09:08.321Z,69.77
2019-06-07T04:11:39.095Z,69.72
2019-06-07T04:14:03.307Z,69.44
2019-06-07T04:16:34.641Z,69.27
2019-06-07T04:18:58.566Z,69.37
2019-06-07T04:21:26.103Z,69.51
2019-06-07T04:23:53.582Z,69.91
2019-06-07T04:26:21.069Z,70.26
2019-06-07T04:29:31.520Z,69.91
2019-06-07T04:31:16.027Z,69.49
2019-06-07T04:33:43.904Z,69.27
2019-06-07T04:36:10.964Z,69.56
2019-06-07T04:38:40.558Z,69.57
2019-06-07T04:41:06.086Z,69.38
2019-06-07T04:43:33.606Z,69.11
2019-06-07T04:46:01.098Z,69.34
2019-06-07T04:48:30.918Z,69.20
2019-06-07T04:50:56.152Z,69.16
2019-06-07T04:53:23.613Z,68.71
2019-06-07T04:55:51.088Z,68.83
2019-06-07T04:58:18.601Z,69.33
2019-06-07T05:00:53.240Z,69.03
2019-06-07T05:03:13.599Z,68.76
2019-06-07T05:05:43.674Z,68.48
2019-06-07T05:08:27.119Z,68.24
2019-06-07T05:10:38.228Z,68.07
2019-06-07T05:13:03.731Z,68.16
2019-06-07T05:15:32.057Z,67.96
2019-06-07T05:17:58.812Z,67.63
2019-06-07T05:20:26.471Z,67.30
2019-06-07T05:22:53.972Z,67.15
2019-06-07T05:25:21.448Z,67.03
2019-06-07T05:27:48.922Z,66.91
2019-06-07T05:32:58.865Z,67.06
2019-06-07T05:35:26.369Z,67.21
2019-06-07T05:37:53.842Z,67.17
2019-06-07T05:40:21.582Z,66.79
2019-06-07T05:42:48.835Z,66.36
2019-06-07T05:45:16.291Z,66.39
2019-06-07T05:47:50.277Z,66.98
2019-06-07T05:50:38.581Z,67.03
2019-06-07T05:52:42.432Z,67.00
2019-06-07T05:55:07.202Z,66.77
2019-06-07T05:57:38.089Z,66.58
2019-06-07T06:00:02.235Z,66.23
2019-06-07T06:02:29.707Z,66.07
2019-06-07T06:04:57.225Z,65.81
2019-06-07T06:07:24.863Z,65.63
2019-06-07T06:09:52.318Z,65.41
2019-06-07T06:12:34.175Z,64.76
2019-06-07T06:14:47.353Z,64.20
2019-06-07T06:17:14.831Z,64.45
2019-06-07T06:19:48.872Z,64.06
2019-06-07T06:22:09.824Z,63.62
2019-06-07T06:24:37.645Z,63.63
2019-06-07T06:27:28.289Z,63.59
2019-06-07T06:29:31.868Z,64.25
2019-06-07T06:34:26.883Z,64.25
2019-06-07T06:36:54.330Z,63.54
2019-06-07T06:39:21.836Z,63.22
2019-06-07T06:41:58.607Z,62.79
2019-06-07T06:44:16.821Z,62.50
2019-06-07T06:46:49.101Z,62.32
2019-06-07T06:49:12.001Z,62.38
2019-06-07T06:51:41.714Z,62.21
2019-06-07T06:54:07.009Z,62.04
2019-06-07T06:56:34.540Z,61.23
2019-06-07T07:01:29.750Z,60.74
2019-06-07T07:04:11.377Z,60.67
2019-06-07T07:06:26.764Z,61.13
2019-06-07T07:08:53.439Z,60.45
2019-06-07T07:11:23.119Z,60.08
2019-06-07T07:13:49.884Z,59.68
2019-06-07T07:16:14.468Z,58.88
2019-06-07T07:18:41.774Z,59.23
2019-06-07T07:21:08.486Z,59.13
2019-06-07T07:23:35.476Z,59.19
2019-06-07T07:26:02.454Z,58.75
2019-06-07T07:28:29.475Z,57.50
2019-06-07T07:30:57.148Z,57.30
2019-06-07T07:33:23.638Z,59.19
2019-06-07T07:36:10.858Z,59.57
2019-06-07T07:38:17.718Z,59.55
2019-06-07T07:43:11.818Z,57.49
2019-06-07T07:45:38.962Z,58.16
2019-06-07T07:48:15.483Z,58.88
2019-06-07T07:50:33.146Z,57.62
2019-06-07T07:53:00.862Z,54.95
2019-06-07T07:55:27.277Z,54.04
2019-06-07T07:58:01.139Z,53.25
2019-06-07T08:02:48.957Z,51.10
2019-06-07T08:05:23.488Z,51.09
2019-06-07T08:07:43.035Z,49.92
2019-06-07T08:10:10.172Z,48.43
2019-06-07T08:12:55.798Z,48.01
2019-06-07T08:15:05.148Z,47.86
2019-06-07T08:17:32.172Z,48.96
2019-06-07T08:20:02.808Z,50.38
2019-06-07T08:22:26.231Z,50.58
2019-06-07T08:24:55.301Z,50.07
2019-06-07T08:27:26.277Z,49.59
2019-06-07T08:30:13.903Z,49.48
2019-06-07T08:32:14.890Z,49.05
2019-06-07T08:34:41.915Z,48.34
2019-06-07T08:37:09.943Z,48.34
2019-06-07T08:39:59.664Z,47.89
2019-06-07T08:42:36.576Z,48.00
2019-06-07T08:44:53.593Z,49.13
2019-06-07T08:47:20.874Z,50.07
2019-06-07T08:49:45.873Z,49.94
2019-06-07T08:52:13.436Z,49.76
2019-06-07T08:54:40.495Z,49.90
2019-06-07T08:57:20.777Z,49.66
2019-06-07T08:59:34.571Z,49.93
2019-06-07T09:02:06.662Z,49.09
2019-06-07T09:04:28.597Z,48.24
2019-06-07T09:07:07.359Z,49.39
2019-06-07T09:09:22.710Z,49.40
2019-06-07T09:11:49.699Z,49.25
2019-06-07T09:14:16.699Z,47.58
2019-06-07T09:16:43.683Z,47.56
2019-06-07T09:19:11.323Z,46.90
2019-06-07T09:21:37.784Z,47.35
2019-06-07T09:24:11.357Z,46.76
2019-06-07T09:26:31.886Z,45.74
2019-06-07T09:29:01.289Z,45.81
2019-06-07T09:31:50.358Z,46.11
2019-06-07T09:33:53.942Z,46.44
2019-06-07T09:36:21.173Z,47.43
2019-06-07T09:38:48.258Z,46.91
2019-06-07T09:41:15.429Z,47.16
2019-06-07T09:46:15.261Z,46.21
2019-06-07T09:51:09.519Z,45.43
2019-06-07T09:53:31.138Z,45.92
2019-06-07T09:56:02.913Z,46.44
2019-06-07T10:00:52.323Z,45.90
2019-06-07T10:03:22.380Z,45.28
2019-06-07T10:05:47.328Z,44.60
2019-06-07T10:09:14.994Z,44.61
2019-06-07T10:10:43.162Z,43.90
2019-06-07T10:13:10.298Z,44.01
2019-06-07T10:15:37.546Z,44.67
2019-06-07T10:18:05.234Z,44.92
2019-06-07T10:20:32.777Z,43.63
2019-06-07T10:23:01.604Z,43.06
2019-06-07T10:25:27.919Z,43.02
2019-06-07T10:27:56.042Z,42.93
2019-06-07T10:30:23.581Z,43.40
2019-06-07T10:32:52.414Z,43.67
2019-06-07T10:35:19.955Z,43.91
2019-06-07T10:37:47.556Z,42.76
2019-06-07T10:40:15.086Z,42.51
2019-06-07T10:42:42.553Z,43.21
2019-06-07T10:45:12.176Z,42.58
2019-06-07T10:47:38.469Z,42.82
2019-06-07T10:50:06.054Z,42.59
2019-06-07T10:52:33.552Z,41.69
2019-06-07T10:55:02.512Z,41.63
2019-06-07T10:57:29.415Z,41.19
2019-06-07T10:59:56.892Z,42.11
2019-06-07T11:02:24.542Z,42.47
2019-06-07T11:04:52.051Z,41.75
2019-06-07T11:07:19.551Z,40.88
2019-06-07T11:09:47.197Z,41.35
2019-06-07T11:12:15.284Z,41.20
2019-06-07T11:14:42.544Z,41.44
2019-06-07T11:17:11.343Z,41.17
2019-06-07T11:19:37.571Z,41.24
2019-06-07T11:22:06.074Z,41.58
2019-06-07T11:24:32.607Z,40.48
2019-06-07T11:27:00.095Z,40.36
2019-06-07T11:29:27.870Z,40.39
2019-06-07T11:31:55.348Z,39.63
2019-06-07T11:34:22.936Z,40.18
2019-06-07T11:36:51.163Z,40.32
2019-06-07T11:39:18.898Z,39.86
2019-06-07T11:41:46.086Z,39.53
2019-06-07T11:44:15.016Z,39.45
2019-06-07T11:46:42.063Z,38.95
2019-06-07T11:49:10.890Z,39.35
2019-06-07T11:51:37.071Z,39.38
2019-06-07T11:54:04.615Z,39.42
2019-06-07T11:56:32.367Z,39.08
2019-06-07T11:58:59.876Z,39.36
2019-06-07T12:01:27.402Z,39.37
2019-06-07T12:03:54.455Z,38.99
2019-06-07T12:06:21.629Z,38.31
2019-06-07T12:08:49.119Z,37.76
2019-06-07T12:11:16.978Z,37.25
2019-06-07T12:13:44.052Z,37.15
2019-06-07T12:16:11.309Z,37.57
2019-06-07T12:18:38.173Z,38.30
2019-06-07T12:21:05.175Z,39.23
2019-06-07T12:23:32.259Z,39.12
2019-06-07T12:25:59.437Z,38.75
2019-06-07T12:28:26.463Z,38.56
2019-06-07T12:30:55.218Z,38.56
2019-06-07T12:33:21.727Z,37.84
2019-06-07T12:35:49.115Z,37.48
2019-06-07T12:38:17.336Z,36.39
2019-06-07T12:40:56.856Z,36.45
2019-06-07T12:43:12.370Z,37.14
2019-06-07T12:45:44.955Z,37.52
2019-06-07T12:48:07.762Z,36.46
2019-06-07T12:50:42.750Z,35.81
2019-06-07T12:53:02.845Z,34.92
2019-06-07T12:55:30.323Z,32.25
2019-06-07T12:57:57.790Z,31.04
2019-06-07T13:00:25.251Z,29.42
2019-06-07T13:02:52.775Z,28.17
2019-06-07T13:05:21.658Z,28.39
2019-06-07T13:07:47.756Z,27.84
2019-06-07T13:10:15.658Z,27.45
2019-06-07T13:12:44.086Z,27.07
2019-06-07T13:15:09.617Z,27.26
2019-06-07T13:17:37.112Z,26.91
2019-06-07T13:20:05.376Z,26.26
2019-06-07T13:22:32.867Z,26.39
2019-06-07T13:25:00.327Z,26.46
2019-06-07T13:27:31.923Z,26.41
2019-06-07T13:29:55.593Z,26.38
2019-06-07T13:32:23.746Z,26.53
2019-06-07T13:34:51.164Z,26.27
2019-06-07T13:37:19.635Z,25.29
2019-06-07T13:39:46.171Z,25.34
2019-06-07T13:42:13.994Z,24.89
2019-06-07T13:44:40.988Z,24.60
2019-06-07T13:47:08.016Z,24.14
2019-06-07T13:49:35.026Z,24.20
2019-06-07T13:52:02.093Z,23.95
2019-06-07T13:54:29.711Z,23.92
2019-06-07T13:57:02.406Z,24.29
2019-06-07T13:59:26.344Z,24.09
2019-06-07T14:01:52.514Z,23.87
2019-06-07T14:04:20.917Z,23.76
2019-06-07T14:06:47.627Z,23.90
2019-06-07T14:09:15.098Z,24.09
2019-06-07T14:11:50.752Z,23.75
2019-06-07T14:14:10.100Z,23.60
2019-06-07T14:16:37.582Z,23.65
2019-06-07T14:19:05.037Z,23.89
2019-06-07T14:21:32.524Z,23.83
2019-06-07T14:24:00.058Z,23.89
2019-06-07T14:26:27.536Z,24.04
2019-06-07T14:28:55.007Z,24.99
2019-06-07T14:31:24.394Z,25.12
2019-06-07T14:33:49.559Z,25.77
2019-06-07T14:36:17.105Z,25.83
2019-06-07T14:38:44.566Z,26.06
2019-06-07T14:41:12.078Z,26.02
2019-06-07T14:43:39.666Z,26.05
2019-06-07T14:46:07.109Z,26.01
2019-06-07T14:48:34.637Z,26.22
2019-06-07T14:51:02.147Z,27.15
2019-06-07T14:53:30.842Z,28.63
2019-06-07T14:55:57.168Z,28.98
2019-06-07T14:58:25.021Z,29.41
2019-06-07T15:00:52.158Z,29.17
2019-06-07T15:03:19.620Z,29.38
2019-06-07T15:05:47.121Z,29.50
2019-06-07T15:08:14.625Z,29.55
2019-06-07T15:10:42.181Z,29.75
2019-06-07T15:13:09.701Z,29.58
2019-06-07T15:15:37.208Z,29.67
2019-06-07T15:18:04.673Z,29.39
2019-06-07T15:20:32.270Z,29.04
2019-06-07T15:23:00.097Z,29.72
2019-06-07T15:25:29.067Z,29.78
2019-06-07T15:27:55.202Z,29.83
2019-06-07T15:30:22.774Z,29.95
2019-06-07T15:32:50.245Z,30.49
2019-06-07T15:35:17.746Z,30.27
2019-06-07T15:37:45.314Z,30.14
2019-06-07T15:40:13.252Z,29.88
2019-06-07T15:42:52.049Z,29.93
2019-06-07T15:45:08.244Z,30.54
2019-06-07T15:47:35.942Z,30.51
2019-06-07T15:50:10.640Z,30.88
2019-06-07T15:52:38.856Z,31.14
2019-06-07T15:55:06.454Z,31.51
2019-06-07T15:57:35.150Z,31.83
2019-06-07T16:00:01.655Z,31.94
2019-06-07T16:02:29.075Z,32.35
2019-06-07T16:04:56.539Z,32.66
2019-06-07T16:07:23.980Z,33.11
2019-06-07T16:09:51.470Z,33.57
2019-06-07T16:12:19.651Z,34.29
2019-06-07T16:14:47.137Z,35.08
2019-06-07T16:17:14.656Z,35.59
2019-06-07T16:19:44.942Z,35.87
2019-06-07T16:22:10.117Z,36.71
2019-06-07T16:24:37.722Z,37.23
2019-06-07T16:27:05.212Z,37.28
2019-06-07T16:29:32.696Z,37.68
2019-06-07T16:32:00.163Z,37.73
2019-06-07T16:34:27.647Z,37.90
2019-06-07T16:36:55.283Z,38.19
2019-06-07T16:39:22.785Z,38.44
2019-06-07T16:41:50.291Z,38.49
2019-06-07T16:44:17.805Z,38.42
2019-06-07T16:46:45.303Z,38.71
2019-06-07T16:49:12.789Z,38.82
2019-06-07T16:51:41.287Z,38.58
2019-06-07T16:54:07.763Z,38.79
2019-06-07T16:56:35.291Z,38.76
2019-06-07T16:59:02.771Z,38.91
2019-06-07T17:01:30.327Z,38.92
2019-06-07T17:03:57.838Z,38.65
2019-06-07T17:06:25.452Z,38.39
2019-06-07T17:08:52.970Z,38.38
2019-06-07T17:11:20.483Z,38.33
2019-06-07T17:13:48.562Z,38.31
2019-06-07T17:16:15.641Z,38.10
2019-06-07T17:18:43.143Z,38.52
2019-06-07T17:21:10.612Z,38.68
2019-06-07T17:23:39.116Z,39.17
2019-06-07T17:26:05.603Z,39.44
2019-06-07T17:28:33.203Z,39.32
2019-06-07T17:33:34.526Z,39.42
2019-06-07T17:36:02.076Z,39.57
2019-06-07T17:38:29.581Z,39.68
2019-06-07T17:40:57.103Z,39.82
2019-06-07T17:43:24.622Z,39.92
2019-06-07T17:45:52.115Z,40.25
2019-06-07T17:48:19.568Z,40.56
2019-06-07T17:50:47.800Z,40.64
2019-06-07T17:53:15.411Z,40.53
2019-06-07T17:55:44.110Z,40.79
2019-06-07T17:58:10.556Z,40.68
2019-06-07T18:00:44.639Z,40.41
2019-06-07T18:03:12.002Z,40.24
2019-06-07T18:05:39.543Z,39.95
2019-06-07T18:08:07.028Z,40.04
2019-06-07T18:10:35.533Z,39.92
2019-06-07T18:13:02.995Z,39.73
2019-06-07T18:15:40.169Z,39.22
2019-06-07T18:18:07.697Z,39.29
2019-06-07T18:20:35.152Z,39.28
2019-06-07T18:23:02.640Z,39.00
2019-06-07T18:25:30.166Z,38.73
2019-06-07T18:27:58.941Z,38.39
2019-06-07T18:30:25.194Z,37.78
2019-06-07T18:32:52.952Z,37.79
2019-06-07T18:35:20.142Z,37.76
2019-06-07T18:37:48.867Z,37.91
2019-06-07T18:40:15.101Z,37.89
2019-06-07T18:42:42.570Z,38.21
2019-06-07T18:45:10.027Z,38.30
2019-06-07T18:47:37.519Z,38.50
2019-06-07T18:50:05.017Z,38.48
2019-06-07T18:52:32.563Z,38.68
2019-06-07T18:55:00.129Z,38.33
2019-06-07T18:57:27.615Z,38.04
2019-06-07T18:59:56.436Z,38.34
2019-06-07T19:02:22.623Z,38.37
2019-06-07T19:04:50.600Z,38.17
2019-06-07T19:07:17.674Z,38.42
2019-06-07T19:09:45.257Z,38.92
2019-06-07T19:12:12.750Z,40.17
2019-06-07T19:14:40.275Z,40.66
2019-06-07T19:17:07.792Z,40.94
2019-06-07T19:19:35.294Z,41.06
2019-06-07T19:22:03.128Z,41.26
2019-06-07T19:24:30.581Z,42.05
2019-06-07T19:26:58.700Z,43.08
2019-06-07T19:29:25.761Z,43.52
2019-06-07T19:31:53.267Z,43.71
2019-06-07T19:34:20.721Z,44.53
2019-06-07T19:36:49.147Z,44.26
2019-06-07T19:39:15.696Z,44.96
2019-06-07T19:41:43.155Z,45.11
2019-06-07T19:44:10.635Z,44.83
2019-06-07T19:46:38.195Z,44.65
2019-06-07T19:49:05.807Z,44.44
2019-06-07T19:51:33.289Z,44.01
2019-06-07T19:54:01.774Z,43.97
2019-06-07T19:56:28.304Z,43.91
2019-06-07T19:58:55.755Z,43.64
2019-06-07T20:01:23.309Z,43.26
2019-06-07T20:03:50.812Z,42.58
2019-06-07T20:06:18.440Z,42.35
2019-06-07T20:08:45.907Z,42.71
2019-06-07T20:11:13.502Z,42.27
2019-06-07T20:13:40.994Z,41.96
2019-06-07T20:16:08.438Z,41.71
2019-06-07T20:18:35.898Z,41.64
2019-06-07T20:21:04.824Z,41.67
2019-06-07T20:23:31.046Z,41.54
2019-06-07T20:25:58.500Z,41.94
2019-06-07T20:28:26.822Z,42.22
2019-06-07T20:30:54.304Z,42.35
2019-06-07T20:33:21.820Z,42.56
2019-06-07T20:35:49.328Z,42.57
2019-06-07T20:38:16.803Z,42.43
2019-06-07T20:40:44.368Z,42.49
2019-06-07T20:43:11.835Z,42.38
2019-06-07T20:45:39.298Z,42.59
2019-06-07T20:48:08.305Z,42.55
2019-06-07T20:50:34.469Z,42.75
2019-06-07T20:53:03.162Z,42.73
2019-06-07T20:55:29.512Z,42.67
2019-06-07T20:57:57.099Z,42.36
2019-06-07T21:00:24.572Z,42.21
2019-06-07T21:02:52.028Z,42.92
2019-06-07T21:05:19.497Z,44.16
2019-06-07T21:07:46.949Z,44.84
2019-06-07T21:10:14.438Z,45.03
2019-06-07T21:12:41.979Z,46.31
2019-06-07T21:15:12.834Z,46.57
2019-06-07T21:17:36.988Z,46.55
2019-06-07T21:20:07.059Z,47.11
2019-06-07T21:22:32.132Z,47.80
2019-06-07T21:25:00.669Z,48.74
2019-06-07T21:27:27.258Z,49.63
2019-06-07T21:29:54.746Z,50.01
2019-06-07T21:32:22.190Z,49.91
2019-06-07T21:34:49.738Z,50.14
2019-06-07T21:37:18.176Z,49.76
2019-06-07T21:39:45.627Z,49.72
2019-06-07T21:42:13.095Z,49.58
2019-06-07T21:44:40.682Z,49.94
2019-06-07T21:47:08.488Z,50.00
2019-06-07T21:49:35.712Z,49.79
2019-06-07T21:52:04.323Z,48.93
2019-06-07T21:54:30.822Z,48.44
2019-06-07T21:56:58.400Z,48.33
2019-06-07T21:59:25.917Z,47.92
2019-06-07T22:01:53.435Z,47.62
2019-06-07T22:04:20.906Z,47.62
2019-06-07T22:06:48.361Z,48.05
2019-06-07T22:09:15.874Z,48.19
2019-06-07T22:11:43.347Z,47.90
2019-06-07T22:14:10.823Z,46.87
2019-06-07T22:16:38.763Z,47.08
2019-06-07T22:19:06.545Z,47.43
2019-06-07T22:21:33.738Z,47.82
2019-06-07T22:24:01.202Z,48.08
2019-06-07T22:26:28.876Z,48.15
2019-06-07T22:28:56.361Z,48.51
2019-06-07T22:31:23.863Z,48.79
2019-06-07T22:33:52.331Z,49.29
2019-06-07T22:36:19.959Z,50.18
2019-06-07T22:38:47.527Z,51.12
2019-06-07T22:41:15.899Z,52.07
2019-06-07T22:43:42.562Z,52.31
2019-06-07T22:46:10.846Z,53.04
2019-06-07T22:48:37.606Z,53.16
2019-06-07T22:51:07.265Z,53.92
2019-06-07T22:53:32.807Z,53.64
2019-06-07T22:56:01.252Z,53.31
2019-06-07T22:58:28.778Z,53.61
2019-06-07T23:00:56.223Z,54.00
2019-06-07T23:03:23.717Z,54.38
2019-06-07T23:05:51.198Z,54.85
2019-06-07T23:08:19.087Z,55.54
2019-06-07T23:10:46.178Z,55.97
2019-06-07T23:13:13.821Z,56.62
2019-06-07T23:15:41.392Z,56.92
2019-06-07T23:18:09.378Z,57.59
2019-06-07T23:20:36.510Z,58.21
2019-06-07T23:23:04.007Z,58.27
2019-06-07T23:25:31.464Z,58.70
2019-06-07T23:27:58.940Z,59.35
2019-06-07T23:30:26.426Z,59.65
2019-06-07T23:32:54.285Z,59.61
2019-06-07T23:35:21.774Z,60.08
2019-06-07T23:37:49.359Z,60.37
2019-06-07T23:40:17.344Z,59.70
2019-06-07T23:42:44.362Z,59.56
2019-06-07T23:45:13.646Z,59.49
2019-06-07T23:47:39.707Z,59.86
2019-06-07T23:50:07.247Z,58.99
2019-06-07T23:52:34.703Z,58.59
2019-06-07T23:55:02.255Z,58.74
2019-06-07T23:57:29.748Z,59.04
2019-06-07T23:59:57.295Z,59.34
